createdAt,value
2023-01-27T00:01:17.797Z,20.98
2023-01-27T00:06:20.605Z,20.97
2023-01-27T00:11:53.842Z,20.97
2023-01-27T00:16:56.645Z,20.99
2023-01-27T00:22:16.927Z,20.94
2023-01-27T00:27:21.073Z,20.95
2023-01-27T00:32:41.438Z,20.97
2023-01-27T00:37:44.747Z,20.93
2023-01-27T00:42:48.909Z,20.93
2023-01-27T00:47:52.358Z,20.88
2023-01-27T00:52:55.163Z,20.89
2023-01-27T00:57:59.299Z,20.90
2023-01-27T01:03:02.096Z,20.88
2023-01-27T01:08:05.211Z,20.88
2023-01-27T01:13:11.756Z,20.87
2023-01-27T01:18:14.536Z,20.89
2023-01-27T01:23:17.441Z,20.83
2023-01-27T01:28:21.859Z,20.86
2023-01-27T01:33:24.606Z,20.83
2023-01-27T01:38:27.334Z,20.80
2023-01-27T01:43:31.539Z,20.85
2023-01-27T01:48:35.671Z,20.83
2023-01-27T01:53:41.823Z,20.81
2023-01-27T01:58:45.979Z,20.80
2023-01-27T02:03:50.078Z,20.78
2023-01-27T02:08:52.865Z,20.77
2023-01-27T02:13:57.120Z,20.74
2023-01-27T02:18:59.938Z,20.74
2023-01-27T02:24:06.414Z,20.70
2023-01-27T02:29:11.572Z,20.76
2023-01-27T02:34:15.921Z,20.73
2023-01-27T02:39:20.657Z,20.73
2023-01-27T02:44:25.026Z,20.70
2023-01-27T02:49:27.891Z,20.68
2023-01-27T02:54:30.757Z,20.69
2023-01-27T02:59:35.102Z,20.70
2023-01-27T03:04:39.748Z,20.70
2023-01-27T03:09:42.524Z,20.67
2023-01-27T03:15:04.177Z,20.65
2023-01-27T03:20:07.796Z,20.65
2023-01-27T03:25:11.481Z,20.66
2023-01-27T03:30:16.503Z,20.65
2023-01-27T03:35:34.102Z,20.65
2023-01-27T03:40:54.943Z,20.64
2023-01-27T03:46:20.615Z,20.62
2023-01-27T03:51:24.923Z,20.71
2023-01-27T03:56:27.783Z,20.66
2023-01-27T04:01:32.002Z,20.67
2023-01-27T04:06:54.792Z,20.66
2023-01-27T04:11:59.676Z,20.63
2023-01-27T04:17:05.550Z,20.69
2023-01-27T04:22:08.543Z,20.67
2023-01-27T04:27:12.446Z,20.60
2023-01-27T04:32:16.573Z,20.60
2023-01-27T04:37:19.352Z,20.58
2023-01-27T04:42:22.618Z,20.54
2023-01-27T04:47:27.487Z,20.55
2023-01-27T04:52:30.296Z,20.49
2023-01-27T04:57:33.114Z,20.50
2023-01-27T05:02:37.313Z,20.51
2023-01-27T05:07:40.184Z,20.50
2023-01-27T05:12:43.024Z,20.44
2023-01-27T05:17:47.216Z,20.40
2023-01-27T05:22:51.661Z,20.37
2023-01-27T05:27:54.930Z,20.24
2023-01-27T05:32:59.059Z,20.19
2023-01-27T05:38:02.057Z,20.17
2023-01-27T05:43:04.985Z,20.11
2023-01-27T05:48:09.243Z,20.09
2023-01-27T05:53:12.062Z,20.03
2023-01-27T05:58:14.878Z,19.98
2023-01-27T06:03:19.038Z,19.91
2023-01-27T06:08:22.234Z,19.84
2023-01-27T06:13:25.191Z,19.74
2023-01-27T06:18:29.299Z,19.69
2023-01-27T06:23:32.099Z,19.62
2023-01-27T06:28:34.984Z,19.58
2023-01-27T06:33:39.162Z,19.53
2023-01-27T06:38:42.033Z,19.48
2023-01-27T06:43:44.880Z,19.46
2023-01-27T06:48:48.984Z,19.41
2023-01-27T06:53:51.842Z,19.37
2023-01-27T06:58:54.617Z,19.33
2023-01-27T07:03:58.792Z,19.28
2023-01-27T07:09:01.690Z,19.24
2023-01-27T07:14:04.486Z,19.21
2023-01-27T07:19:08.605Z,19.17
2023-01-27T07:24:11.841Z,19.13
2023-01-27T07:29:14.684Z,19.09
2023-01-27T07:34:18.923Z,19.06
2023-01-27T07:39:21.700Z,19.03
2023-01-27T07:44:24.476Z,19.01
2023-01-27T07:49:28.583Z,18.98
2023-01-27T07:54:31.496Z,18.93
2023-01-27T07:59:34.408Z,18.90
2023-01-27T08:04:52.158Z,18.89
2023-01-27T08:09:57.216Z,19.06
2023-01-27T08:15:00.044Z,19.26
2023-01-27T08:20:04.578Z,19.40
2023-01-27T08:25:08.077Z,19.49
2023-01-27T08:30:12.319Z,19.56
2023-01-27T08:35:16.601Z,19.56
2023-01-27T08:40:19.610Z,15.77
2023-01-27T08:45:22.399Z,16.21
2023-01-27T08:50:26.503Z,17.29
2023-01-27T08:55:29.744Z,17.92
2023-01-27T09:00:32.593Z,18.35
2023-01-27T09:05:37.837Z,18.65
2023-01-27T09:10:40.802Z,18.82
2023-01-27T09:15:43.795Z,18.95
2023-01-27T09:20:47.920Z,19.06
2023-01-27T09:25:50.695Z,19.19
2023-01-27T09:30:58.019Z,19.27
2023-01-27T09:36:03.050Z,19.35
2023-01-27T09:41:50.544Z,19.54
2023-01-27T09:47:07.125Z,19.54
2023-01-27T09:52:23.357Z,19.59
2023-01-27T09:57:32.199Z,19.57
2023-01-27T10:02:44.207Z,19.63
2023-01-27T10:08:13.846Z,19.68
2023-01-27T10:13:19.337Z,19.73
2023-01-27T10:18:29.874Z,19.77
2023-01-27T10:23:40.715Z,19.83
2023-01-27T10:28:47.791Z,19.86
2023-01-27T10:33:52.655Z,19.90
2023-01-27T10:39:03.601Z,19.93
2023-01-27T10:44:13.804Z,19.90
2023-01-27T10:49:23.295Z,19.98
2023-01-27T10:54:29.304Z,19.95
2023-01-27T10:59:35.151Z,19.92
2023-01-27T11:04:39.701Z,19.91
2023-01-27T11:09:44.939Z,19.93
2023-01-27T11:14:49.515Z,19.95
2023-01-27T11:19:57.703Z,19.91
2023-01-27T11:25:05.387Z,19.93
2023-01-27T11:30:12.137Z,19.91
2023-01-27T11:35:15.896Z,19.91
2023-01-27T11:40:22.742Z,19.91
2023-01-27T11:45:25.604Z,19.92
2023-01-27T11:50:30.175Z,19.90
2023-01-27T11:55:37.359Z,19.87
2023-01-27T12:00:45.349Z,19.89
2023-01-27T12:05:50.155Z,19.87
2023-01-27T12:10:54.296Z,19.86
2023-01-27T12:15:59.837Z,19.90
2023-01-27T12:21:03.713Z,19.90
2023-01-27T12:26:08.471Z,19.92
2023-01-27T12:31:12.055Z,19.96
2023-01-27T12:36:16.332Z,20.01
2023-01-27T12:41:24.250Z,20.02
2023-01-27T12:46:27.624Z,20.03
2023-01-27T12:51:40.906Z,20.00
2023-01-27T12:56:45.039Z,19.99
2023-01-27T13:01:59.062Z,19.98
2023-01-27T13:07:06.550Z,19.97
2023-01-27T13:12:16.582Z,19.96
2023-01-27T13:17:30.235Z,19.95
2023-01-27T13:22:33.937Z,19.93
2023-01-27T13:27:40.190Z,19.94
2023-01-27T13:32:42.980Z,19.94
2023-01-27T13:37:49.197Z,19.93
2023-01-27T13:42:55.580Z,19.90
2023-01-27T13:47:59.792Z,19.92
2023-01-27T13:53:02.554Z,19.92
2023-01-27T13:58:08.220Z,19.90
2023-01-27T14:03:40.900Z,19.88
2023-01-27T14:08:51.879Z,19.87
2023-01-27T14:14:04.191Z,19.89
2023-01-27T14:19:10.967Z,19.92
2023-01-27T14:24:21.089Z,19.93
2023-01-27T14:29:29.895Z,19.94
2023-01-27T14:34:38.650Z,19.94
2023-01-27T14:39:44.127Z,19.89
2023-01-27T14:45:04.555Z,19.94
2023-01-27T14:50:14.911Z,20.00
2023-01-27T14:55:23.952Z,19.99
2023-01-27T15:00:37.153Z,20.08
2023-01-27T15:05:41.188Z,20.14
2023-01-27T15:10:46.303Z,20.22
2023-01-27T15:16:17.696Z,20.25
2023-01-27T15:21:33.195Z,20.30
2023-01-27T15:26:36.127Z,20.41
2023-01-27T15:31:40.561Z,20.45
2023-01-27T15:37:02.452Z,20.50
2023-01-27T15:42:11.508Z,20.54
2023-01-27T15:47:18.028Z,20.59
2023-01-27T15:52:27.082Z,20.61
2023-01-27T15:57:30.816Z,20.63
2023-01-27T16:02:38.171Z,20.67
2023-01-27T16:07:40.980Z,20.73
2023-01-27T16:12:47.904Z,20.80
2023-01-27T16:18:13.528Z,20.86
2023-01-27T16:23:17.661Z,20.93
2023-01-27T16:28:22.588Z,20.97
2023-01-27T16:33:29.058Z,21.03
2023-01-27T16:38:33.087Z,21.09
2023-01-27T16:43:42.577Z,21.16
2023-01-27T16:48:46.795Z,21.20
2023-01-27T16:53:50.209Z,21.27
2023-01-27T16:58:53.231Z,21.30
2023-01-27T17:04:04.816Z,21.37
2023-01-27T17:09:21.321Z,21.39
2023-01-27T17:14:31.621Z,21.43
2023-01-27T17:19:36.937Z,21.44
2023-01-27T17:24:44.093Z,21.42
2023-01-27T17:29:47.007Z,21.40
2023-01-27T17:34:51.620Z,21.38
2023-01-27T17:39:55.605Z,21.37
2023-01-27T17:45:12.772Z,21.32
2023-01-27T17:50:18.380Z,21.28
2023-01-27T17:55:22.520Z,21.29
2023-01-27T18:00:26.146Z,21.27
2023-01-27T18:05:31.755Z,21.22
2023-01-27T18:10:38.201Z,21.27
2023-01-27T18:15:42.598Z,21.25
2023-01-27T18:20:46.967Z,21.25
2023-01-27T18:25:51.576Z,21.25
2023-01-27T18:30:54.843Z,21.28
2023-01-27T18:35:59.884Z,21.24
2023-01-27T18:41:12.027Z,21.23
2023-01-27T18:46:15.200Z,21.24
2023-01-27T18:51:19.383Z,21.24
2023-01-27T18:56:22.228Z,21.27
2023-01-27T19:01:24.994Z,21.30
2023-01-27T19:06:29.126Z,21.37
2023-01-27T19:11:32.870Z,21.38
2023-01-27T19:16:36.672Z,21.42
2023-01-27T19:21:40.903Z,21.45
2023-01-27T19:26:43.732Z,21.45
2023-01-27T19:31:46.533Z,21.46
2023-01-27T19:36:50.714Z,21.45
2023-01-27T19:41:53.508Z,21.47
2023-01-27T19:46:56.589Z,21.51
2023-01-27T19:52:00.790Z,21.52
2023-01-27T19:57:04.974Z,21.44
2023-01-27T20:02:07.744Z,21.48
2023-01-27T20:07:13.125Z,21.50
2023-01-27T20:12:17.604Z,21.57
2023-01-27T20:17:20.433Z,21.52
2023-01-27T20:22:26.317Z,21.52
2023-01-27T20:27:29.117Z,21.53
2023-01-27T20:32:31.931Z,21.51
2023-01-27T20:37:36.172Z,21.51
2023-01-27T20:42:39.175Z,21.54
2023-01-27T20:47:42.138Z,21.51
2023-01-27T20:52:48.242Z,21.52
2023-01-27T20:57:51.207Z,21.49
2023-01-27T21:02:54.080Z,21.46
2023-01-27T21:07:58.255Z,21.47
2023-01-27T21:13:01.026Z,21.49
2023-01-27T21:18:03.831Z,21.47
2023-01-27T21:23:07.989Z,21.50
2023-01-27T21:28:10.822Z,21.44
2023-01-27T21:33:13.674Z,21.52
2023-01-27T21:38:18.387Z,21.48
2023-01-27T21:43:39.025Z,21.52
2023-01-27T21:48:41.747Z,21.49
2023-01-27T21:53:45.949Z,21.51
2023-01-27T21:58:48.702Z,21.53
2023-01-27T22:03:51.491Z,21.53
2023-01-27T22:08:55.615Z,21.51
2023-01-27T22:13:58.444Z,21.49
2023-01-27T22:19:01.170Z,21.45
2023-01-27T22:24:05.580Z,21.44
2023-01-27T22:29:08.400Z,21.42
2023-01-27T22:34:11.206Z,21.40
2023-01-27T22:39:15.348Z,21.34
2023-01-27T22:44:18.410Z,21.29
2023-01-27T22:49:21.185Z,21.27
2023-01-27T22:54:26.117Z,21.24
2023-01-27T22:59:28.867Z,21.24
2023-01-27T23:04:31.624Z,21.24
2023-01-27T23:09:35.725Z,21.21
2023-01-27T23:14:38.531Z,21.23
2023-01-27T23:19:41.529Z,21.27
2023-01-27T23:24:45.730Z,21.25
2023-01-27T23:29:48.501Z,21.23
2023-01-27T23:34:51.540Z,21.23
2023-01-27T23:39:55.672Z,21.18
2023-01-27T23:44:58.494Z,21.17
2023-01-27T23:50:01.237Z,21.14
2023-01-27T23:55:05.840Z,21.15
